createdAt,value
2017-09-14T00:00:46.795Z,19.35
2017-09-14T00:03:14.647Z,19.18
2017-09-14T00:05:42.268Z,19.01
2017-09-14T00:08:09.912Z,19.11
2017-09-14T00:10:38.383Z,19.16
2017-09-14T00:13:05.957Z,18.94
2017-09-14T00:15:33.533Z,19.10
2017-09-14T00:18:01.135Z,19.17
2017-09-14T00:20:28.682Z,19.09
2017-09-14T00:22:56.298Z,19.01
2017-09-14T00:25:23.917Z,18.83
2017-09-14T00:27:51.524Z,19.06
2017-09-14T00:30:19.580Z,19.22
2017-09-14T00:32:47.282Z,19.18
2017-09-14T00:35:15.128Z,18.94
2017-09-14T00:37:42.736Z,18.62
2017-09-14T00:40:10.390Z,18.52
2017-09-14T00:42:38.155Z,18.57
2017-09-14T00:45:05.795Z,18.45
2017-09-14T00:47:33.341Z,18.41
2017-09-14T00:50:01.127Z,18.62
2017-09-14T00:52:28.770Z,18.55
2017-09-14T00:54:56.373Z,18.35
2017-09-14T00:57:24.215Z,18.41
2017-09-14T00:59:52.129Z,18.39
2017-09-14T01:02:19.709Z,18.48
2017-09-14T01:04:47.348Z,18.36
2017-09-14T01:07:14.927Z,18.30
2017-09-14T01:09:42.539Z,18.40
2017-09-14T01:12:10.118Z,18.34
2017-09-14T01:14:37.724Z,18.36
2017-09-14T01:17:05.514Z,18.40
2017-09-14T01:19:33.109Z,18.62
2017-09-14T01:22:00.747Z,18.38
2017-09-14T01:24:28.391Z,18.34
2017-09-14T01:26:56.008Z,18.35
2017-09-14T01:29:23.835Z,18.29
2017-09-14T01:31:51.553Z,18.24
2017-09-14T01:34:19.183Z,18.13
2017-09-14T01:36:46.834Z,18.12
2017-09-14T01:39:14.499Z,18.14
2017-09-14T01:41:42.095Z,18.05
2017-09-14T01:44:09.710Z,18.03
2017-09-14T01:46:37.317Z,18.11
2017-09-14T01:49:04.876Z,18.09
2017-09-14T01:51:32.528Z,18.25
2017-09-14T01:54:00.140Z,18.12
2017-09-14T01:56:27.793Z,17.99
2017-09-14T01:58:55.378Z,18.13
2017-09-14T02:01:23.191Z,17.96
2017-09-14T02:03:51.728Z,17.90
2017-09-14T02:06:19.596Z,17.78
2017-09-14T02:08:47.229Z,17.77
2017-09-14T02:11:14.765Z,17.76
2017-09-14T02:13:42.326Z,17.63
2017-09-14T02:16:09.915Z,17.64
2017-09-14T02:18:37.687Z,17.36
2017-09-14T02:21:05.278Z,17.59
2017-09-14T02:23:32.881Z,17.38
2017-09-14T02:26:00.462Z,17.42
2017-09-14T02:28:28.058Z,17.53
2017-09-14T02:30:55.706Z,17.64
2017-09-14T02:33:23.299Z,17.50
2017-09-14T02:35:51.069Z,17.32
2017-09-14T02:38:18.785Z,17.39
2017-09-14T02:40:46.324Z,17.52
2017-09-14T02:43:13.864Z,17.41
2017-09-14T02:45:41.435Z,17.54
2017-09-14T02:48:09.100Z,17.63
2017-09-14T02:50:36.870Z,17.52
2017-09-14T02:53:04.463Z,17.49
2017-09-14T02:55:32.006Z,17.64
2017-09-14T02:57:59.541Z,17.42
2017-09-14T03:00:27.426Z,17.18
2017-09-14T03:02:55.032Z,17.04
2017-09-14T03:05:22.625Z,16.84
2017-09-14T03:07:50.234Z,17.16
2017-09-14T03:10:17.814Z,16.72
2017-09-14T03:12:45.355Z,16.75
2017-09-14T03:15:12.906Z,16.87
2017-09-14T03:17:40.514Z,17.04
2017-09-14T03:20:08.045Z,17.01
2017-09-14T03:22:35.652Z,16.91
2017-09-14T03:25:03.183Z,16.86
2017-09-14T03:27:30.755Z,16.98
2017-09-14T03:29:58.344Z,17.00
2017-09-14T03:32:25.986Z,16.99
2017-09-14T03:34:53.554Z,16.89
2017-09-14T03:37:21.117Z,17.02
2017-09-14T03:39:48.677Z,17.14
2017-09-14T03:42:16.241Z,16.99
2017-09-14T03:44:43.764Z,16.91
2017-09-14T03:47:11.434Z,16.95
2017-09-14T03:49:39.086Z,16.97
2017-09-14T03:52:07.228Z,17.05
2017-09-14T03:54:34.793Z,16.88
2017-09-14T03:57:11.721Z,16.81
2017-09-14T03:59:39.394Z,16.96
2017-09-14T04:02:07.054Z,16.82
2017-09-14T04:04:36.073Z,16.73
2017-09-14T04:07:03.646Z,16.80
2017-09-14T04:09:32.450Z,16.74
2017-09-14T04:12:00.127Z,16.72
2017-09-14T04:14:27.893Z,16.76
2017-09-14T04:16:57.611Z,16.80
2017-09-14T04:19:25.267Z,16.97
2017-09-14T04:21:52.916Z,17.08
2017-09-14T04:28:14.287Z,17.63
2017-09-14T04:30:42.513Z,18.51
2017-09-14T04:33:10.135Z,20.61
2017-09-14T04:35:38.035Z,21.20
2017-09-14T04:38:05.724Z,21.51
2017-09-14T04:40:34.125Z,22.44
2017-09-14T04:43:01.782Z,22.97
2017-09-14T04:45:29.432Z,22.95
2017-09-14T04:47:57.063Z,23.10
2017-09-14T04:50:24.777Z,21.90
2017-09-14T04:53:31.421Z,23.46
2017-09-14T04:55:59.235Z,23.95
2017-09-14T04:58:26.790Z,23.34
2017-09-14T05:00:54.371Z,22.56
2017-09-14T05:03:22.001Z,22.89
2017-09-14T05:05:49.561Z,22.67
2017-09-14T05:08:17.160Z,22.51
2017-09-14T05:10:44.776Z,22.59
2017-09-14T05:13:12.391Z,23.41
2017-09-14T05:15:40.017Z,23.58
2017-09-14T05:18:07.662Z,23.55
2017-09-14T05:20:35.225Z,23.65
2017-09-14T05:23:02.834Z,23.69
2017-09-14T05:25:30.590Z,23.69
2017-09-14T05:27:58.406Z,23.50
2017-09-14T05:30:26.152Z,23.45
2017-09-14T05:32:53.994Z,24.33
2017-09-14T05:35:21.767Z,24.37
2017-09-14T05:37:49.327Z,24.45
2017-09-14T05:40:16.854Z,24.62
2017-09-14T05:42:44.442Z,24.80
2017-09-14T05:45:12.029Z,25.17
2017-09-14T05:47:39.719Z,25.04
2017-09-14T05:50:07.383Z,25.38
2017-09-14T05:52:34.977Z,25.69
2017-09-14T05:55:02.614Z,25.51
2017-09-14T05:57:30.140Z,25.86
2017-09-14T05:59:57.830Z,26.73
2017-09-14T06:02:25.991Z,26.28
2017-09-14T06:04:53.773Z,26.99
2017-09-14T06:07:21.326Z,27.15
2017-09-14T06:09:48.970Z,27.15
2017-09-14T06:12:16.550Z,26.90
2017-09-14T06:14:44.075Z,27.47
2017-09-14T06:17:11.767Z,27.24
2017-09-14T06:19:39.377Z,27.48
2017-09-14T06:22:07.075Z,28.00
2017-09-14T06:24:34.662Z,28.05
2017-09-14T06:27:02.271Z,28.00
2017-09-14T06:29:29.791Z,28.41
2017-09-14T06:31:57.374Z,27.25
2017-09-14T06:34:24.889Z,27.73
2017-09-14T06:36:52.466Z,28.43
2017-09-14T06:39:23.539Z,28.28
2017-09-14T06:41:51.319Z,28.81
2017-09-14T06:44:26.044Z,29.04
2017-09-14T06:46:53.558Z,29.30
2017-09-14T06:49:21.311Z,29.47
2017-09-14T06:52:04.501Z,28.87
2017-09-14T06:54:38.833Z,29.14
2017-09-14T06:57:07.706Z,29.10
2017-09-14T06:59:35.307Z,29.46
2017-09-14T07:02:40.439Z,29.78
2017-09-14T07:05:08.229Z,28.93
2017-09-14T07:07:43.827Z,28.81
2017-09-14T07:10:21.407Z,29.33
2017-09-14T07:12:48.993Z,30.08
2017-09-14T07:21:02.160Z,29.40
2017-09-14T07:23:30.618Z,29.95
2017-09-14T07:26:00.650Z,30.04
2017-09-14T07:28:35.948Z,30.34
2017-09-14T07:31:03.799Z,30.37
2017-09-14T07:33:31.589Z,30.64
2017-09-14T07:35:59.121Z,31.18
2017-09-14T07:38:26.702Z,31.58
2017-09-14T07:40:54.236Z,31.83
2017-09-14T07:43:22.044Z,31.72
2017-09-14T07:45:49.586Z,31.67
2017-09-14T07:48:17.137Z,31.34
2017-09-14T07:50:44.972Z,31.44
2017-09-14T07:53:12.557Z,31.68
2017-09-14T07:55:40.099Z,31.09
2017-09-14T07:58:07.632Z,30.73
2017-09-14T08:00:35.194Z,31.41
2017-09-14T08:03:02.713Z,30.48
2017-09-14T08:05:30.238Z,31.31
2017-09-14T08:07:57.827Z,31.12
2017-09-14T08:10:25.353Z,30.41
2017-09-14T08:12:52.953Z,31.06
2017-09-14T08:15:20.542Z,30.09
2017-09-14T08:17:48.327Z,30.45
2017-09-14T08:20:15.945Z,31.45
2017-09-14T08:22:44.436Z,31.50
2017-09-14T08:25:12.086Z,31.33
2017-09-14T08:27:39.910Z,31.76
2017-09-14T08:30:07.607Z,31.19
2017-09-14T08:32:35.146Z,31.00
2017-09-14T08:35:02.729Z,31.88
2017-09-14T08:37:30.321Z,31.69
2017-09-14T08:39:57.873Z,31.53
2017-09-14T08:42:25.498Z,31.95
2017-09-14T08:44:53.174Z,32.16
2017-09-14T08:47:20.869Z,32.14
2017-09-14T08:49:48.507Z,32.52
2017-09-14T08:52:16.114Z,32.78
2017-09-14T08:54:43.718Z,32.76
2017-09-14T08:57:11.283Z,32.91
2017-09-14T08:59:38.858Z,33.23
2017-09-14T09:02:06.446Z,33.34
2017-09-14T09:04:34.167Z,32.78
2017-09-14T09:07:01.974Z,32.88
2017-09-14T09:09:29.647Z,32.99
2017-09-14T09:11:58.180Z,33.40
2017-09-14T09:14:25.892Z,32.88
2017-09-14T09:16:53.481Z,32.96
2017-09-14T09:19:21.864Z,30.97
2017-09-14T09:21:49.724Z,30.85
2017-09-14T09:24:17.347Z,30.21
2017-09-14T09:26:45.517Z,31.70
2017-09-14T09:29:13.268Z,32.97
2017-09-14T09:31:40.867Z,33.47
2017-09-14T09:34:08.682Z,33.66
2017-09-14T09:36:36.200Z,33.08
2017-09-14T09:39:03.850Z,32.51
2017-09-14T09:41:31.474Z,31.45
2017-09-14T09:43:59.021Z,31.71
2017-09-14T09:46:26.635Z,31.54
2017-09-14T09:48:54.202Z,30.70
2017-09-14T09:51:21.739Z,30.44
2017-09-14T09:53:49.335Z,30.35
2017-09-14T09:56:17.106Z,31.11
2017-09-14T09:58:44.680Z,31.93
2017-09-14T10:01:12.294Z,32.24
2017-09-14T10:03:39.844Z,31.78
2017-09-14T10:06:07.382Z,32.03
2017-09-14T10:08:35.153Z,31.99
2017-09-14T10:11:02.718Z,32.77
2017-09-14T10:13:30.382Z,30.70
2017-09-14T10:15:58.007Z,30.51
2017-09-14T10:18:25.553Z,30.41
2017-09-14T10:20:53.099Z,31.19
2017-09-14T10:23:20.769Z,31.70
2017-09-14T10:25:48.574Z,32.11
2017-09-14T10:28:16.146Z,30.70
2017-09-14T10:30:43.746Z,30.26
2017-09-14T10:33:12.141Z,31.30
2017-09-14T10:35:39.697Z,31.76
2017-09-14T10:38:07.702Z,31.57
2017-09-14T10:40:35.487Z,32.17
2017-09-14T10:43:03.047Z,31.76
2017-09-14T10:45:31.518Z,31.91
2017-09-14T10:47:59.287Z,32.38
2017-09-14T10:50:27.036Z,32.38
2017-09-14T10:52:54.674Z,32.18
2017-09-14T10:55:22.234Z,31.28
2017-09-14T10:57:49.798Z,30.84
2017-09-14T11:00:19.282Z,30.84
2017-09-14T11:02:46.879Z,30.87
2017-09-14T11:05:14.897Z,30.39
2017-09-14T11:07:42.470Z,30.85
2017-09-14T11:10:19.080Z,31.18
2017-09-14T11:12:46.722Z,31.61
2017-09-14T11:15:14.321Z,31.12
2017-09-14T11:17:41.948Z,30.98
2017-09-14T11:20:09.586Z,30.93
2017-09-14T11:22:37.143Z,31.11
2017-09-14T11:25:04.712Z,31.17
2017-09-14T11:27:32.282Z,31.41
2017-09-14T11:30:05.637Z,31.66
2017-09-14T11:32:33.392Z,31.95
2017-09-14T11:35:01.143Z,31.75
2017-09-14T11:37:32.655Z,32.01
2017-09-14T11:40:00.205Z,32.30
2017-09-14T11:42:27.767Z,32.65
2017-09-14T11:44:55.334Z,31.78
2017-09-14T11:47:25.748Z,31.67
2017-09-14T11:49:53.590Z,31.58
2017-09-14T11:52:21.208Z,31.46
2017-09-14T11:54:49.011Z,31.84
2017-09-14T11:57:19.391Z,32.29
2017-09-14T11:59:47.043Z,31.76
2017-09-14T12:02:14.654Z,31.60
2017-09-14T12:04:43.214Z,31.64
2017-09-14T12:07:10.973Z,31.43
2017-09-14T12:09:41.739Z,31.22
2017-09-14T12:12:14.443Z,31.55
2017-09-14T12:14:42.892Z,31.16
2017-09-14T12:17:14.706Z,31.12
2017-09-14T12:19:42.285Z,31.32
2017-09-14T12:22:12.858Z,31.57
2017-09-14T12:24:41.181Z,31.41
2017-09-14T12:27:09.827Z,31.57
2017-09-14T12:29:39.093Z,31.43
2017-09-14T12:32:06.708Z,31.71
2017-09-14T12:34:34.261Z,31.86
2017-09-14T12:37:04.731Z,31.57
2017-09-14T12:39:32.387Z,31.67
2017-09-14T12:41:59.983Z,31.45
2017-09-14T12:44:27.614Z,31.74
2017-09-14T12:46:59.150Z,32.04
2017-09-14T12:49:27.508Z,32.24
2017-09-14T12:51:55.148Z,32.28
2017-09-14T12:54:22.739Z,32.43
2017-09-14T12:56:51.021Z,32.54
2017-09-14T12:59:18.631Z,32.30
2017-09-14T13:01:46.305Z,31.97
2017-09-14T13:04:13.842Z,31.95
2017-09-14T13:06:41.516Z,32.01
2017-09-14T13:09:09.217Z,31.60
2017-09-14T13:11:37.056Z,31.41
2017-09-14T13:14:04.770Z,31.24
2017-09-14T13:16:32.475Z,31.37
2017-09-14T13:19:00.118Z,31.04
2017-09-14T13:21:27.884Z,31.09
2017-09-14T13:23:55.608Z,31.27
2017-09-14T13:26:23.155Z,31.46
2017-09-14T13:28:50.830Z,31.73
2017-09-14T13:31:18.468Z,31.65
2017-09-14T13:33:46.371Z,31.71
2017-09-14T13:36:13.891Z,31.69
2017-09-14T13:38:41.521Z,31.63
2017-09-14T13:41:09.424Z,31.63
2017-09-14T13:43:37.167Z,31.39
2017-09-14T13:46:04.786Z,31.49
2017-09-14T13:48:32.361Z,31.53
2017-09-14T13:51:00.126Z,31.50
2017-09-14T13:53:27.738Z,31.45
2017-09-14T13:55:55.261Z,31.48
2017-09-14T13:58:22.910Z,31.51
2017-09-14T14:00:50.547Z,31.17
2017-09-14T14:03:18.134Z,31.00
2017-09-14T14:05:45.708Z,30.83
2017-09-14T14:08:13.396Z,30.70
2017-09-14T14:10:40.988Z,30.53
2017-09-14T14:13:08.932Z,30.56
2017-09-14T14:15:36.572Z,30.69
2017-09-14T14:18:04.376Z,30.75
2017-09-14T14:20:32.115Z,30.80
2017-09-14T14:23:00.704Z,30.83
2017-09-14T14:25:28.237Z,30.76
2017-09-14T14:27:56.430Z,30.60
2017-09-14T14:30:24.173Z,30.28
2017-09-14T14:32:51.763Z,30.29
2017-09-14T14:35:19.541Z,30.38
2017-09-14T14:37:47.153Z,30.41
2017-09-14T14:40:14.864Z,30.26
2017-09-14T14:42:42.622Z,30.28
2017-09-14T14:45:10.255Z,30.14
2017-09-14T14:47:38.121Z,30.01
2017-09-14T14:50:05.655Z,30.06
2017-09-14T14:52:33.366Z,30.05
2017-09-14T14:55:00.923Z,30.07
2017-09-14T14:57:28.505Z,30.19
2017-09-14T14:59:56.180Z,30.22
2017-09-14T15:02:23.772Z,29.90
2017-09-14T15:04:51.432Z,29.98
2017-09-14T15:07:19.245Z,29.94
2017-09-14T15:09:46.876Z,30.11
2017-09-14T15:12:14.474Z,30.24
2017-09-14T15:14:42.095Z,30.19
2017-09-14T15:17:09.707Z,30.13
2017-09-14T15:19:37.903Z,30.12
2017-09-14T15:22:05.506Z,30.26
2017-09-14T15:24:33.075Z,30.18
2017-09-14T15:27:00.676Z,30.13
2017-09-14T15:29:28.256Z,30.06
2017-09-14T15:31:56.067Z,29.95
2017-09-14T15:34:23.654Z,29.85
2017-09-14T15:36:51.233Z,29.95
2017-09-14T15:39:24.364Z,29.87
2017-09-14T15:41:51.916Z,29.78
2017-09-14T15:44:25.090Z,29.87
2017-09-14T15:46:52.643Z,29.90
2017-09-14T15:49:25.853Z,29.92
2017-09-14T15:51:53.478Z,29.77
2017-09-14T15:54:20.996Z,29.68
2017-09-14T15:56:51.019Z,29.55
2017-09-14T15:59:18.714Z,29.49
2017-09-14T16:01:46.384Z,29.36
2017-09-14T16:04:14.014Z,29.25
2017-09-14T16:06:41.611Z,29.07
2017-09-14T16:09:09.912Z,29.17
2017-09-14T16:11:37.543Z,29.10
2017-09-14T16:14:05.588Z,29.05
2017-09-14T16:16:33.257Z,29.06
2017-09-14T16:19:00.953Z,29.09
2017-09-14T16:21:28.606Z,29.04
2017-09-14T16:23:56.718Z,28.86
2017-09-14T16:26:24.359Z,28.79
2017-09-14T16:28:52.002Z,28.77
2017-09-14T16:31:20.472Z,28.75
2017-09-14T16:33:48.150Z,28.55
2017-09-14T16:36:16.217Z,28.59
2017-09-14T16:38:43.873Z,28.60
2017-09-14T16:41:13.319Z,28.59
2017-09-14T16:43:40.936Z,28.47
2017-09-14T16:46:12.168Z,28.43
2017-09-14T16:48:40.020Z,28.44
2017-09-14T16:51:07.709Z,28.38
2017-09-14T16:53:35.365Z,28.36
2017-09-14T16:56:03.127Z,28.22
2017-09-14T16:58:30.762Z,28.16
2017-09-14T17:00:58.394Z,28.19
2017-09-14T17:03:29.678Z,28.14
2017-09-14T17:05:57.339Z,28.04
2017-09-14T17:08:25.678Z,27.95
2017-09-14T17:10:54.309Z,27.79
2017-09-14T17:13:24.671Z,27.66
2017-09-14T17:15:56.918Z,27.56
2017-09-14T17:18:26.108Z,27.44
2017-09-14T17:20:57.067Z,27.51
2017-09-14T17:23:25.714Z,27.49
2017-09-14T17:25:53.288Z,27.48
2017-09-14T17:28:20.897Z,27.50
2017-09-14T17:30:50.391Z,27.49
2017-09-14T17:33:17.952Z,27.36
2017-09-14T17:35:47.299Z,27.13
2017-09-14T17:38:14.983Z,26.95
2017-09-14T17:40:42.550Z,26.89
2017-09-14T17:43:11.499Z,27.02
2017-09-14T17:45:39.062Z,27.04
2017-09-14T17:48:06.846Z,27.04
2017-09-14T17:50:35.698Z,26.86
2017-09-14T17:53:03.319Z,26.64
2017-09-14T17:55:31.095Z,26.62
2017-09-14T17:57:58.903Z,26.56
2017-09-14T18:00:29.132Z,26.55
2017-09-14T18:02:57.257Z,26.55
2017-09-14T18:05:24.898Z,26.57
2017-09-14T18:07:52.474Z,26.61
2017-09-14T18:10:20.182Z,26.52
2017-09-14T18:12:48.453Z,26.57
2017-09-14T18:15:16.140Z,26.59
2017-09-14T18:17:44.064Z,26.52
2017-09-14T18:20:12.346Z,26.27
2017-09-14T18:22:43.363Z,25.90
2017-09-14T18:25:10.956Z,25.78
2017-09-14T18:27:39.147Z,25.69
2017-09-14T18:30:07.745Z,25.66
2017-09-14T18:32:37.159Z,25.51
2017-09-14T18:35:04.724Z,25.54
2017-09-14T18:37:34.638Z,25.57
2017-09-14T18:40:02.352Z,25.57
2017-09-14T18:42:29.942Z,25.52
2017-09-14T18:44:57.490Z,25.46
2017-09-14T18:47:25.068Z,25.50
2017-09-14T18:49:52.810Z,25.22
2017-09-14T18:52:20.431Z,25.27
2017-09-14T18:54:48.006Z,25.21
2017-09-14T18:57:15.609Z,25.27
2017-09-14T18:59:43.198Z,25.24
2017-09-14T19:02:10.779Z,25.28
2017-09-14T19:04:38.336Z,25.31
2017-09-14T19:07:06.901Z,25.27
2017-09-14T19:09:34.493Z,25.31
2017-09-14T19:12:02.089Z,25.24
2017-09-14T19:14:29.712Z,25.19
2017-09-14T19:16:57.286Z,25.26
2017-09-14T19:19:24.893Z,25.27
2017-09-14T19:21:52.570Z,25.18
2017-09-14T19:24:20.272Z,25.20
2017-09-14T19:26:47.936Z,25.11
2017-09-14T19:29:15.525Z,25.07
2017-09-14T19:31:43.929Z,25.06
2017-09-14T19:34:14.292Z,25.10
2017-09-14T19:36:41.844Z,25.01
2017-09-14T19:39:09.447Z,25.05
2017-09-14T19:41:37.200Z,25.03
2017-09-14T19:44:04.767Z,25.06
2017-09-14T19:46:33.218Z,24.85
2017-09-14T19:49:00.839Z,24.79
2017-09-14T19:51:28.380Z,24.82
2017-09-14T19:53:55.971Z,24.72
2017-09-14T19:56:23.505Z,24.64
2017-09-14T19:58:51.056Z,24.47
2017-09-14T20:01:19.471Z,24.61
2017-09-14T20:03:46.986Z,24.74
2017-09-14T20:06:14.522Z,24.76
2017-09-14T20:08:42.104Z,24.74
2017-09-14T20:11:09.643Z,24.58
2017-09-14T20:13:38.019Z,24.55
2017-09-14T20:16:05.699Z,24.64
2017-09-14T20:18:33.273Z,24.61
2017-09-14T20:21:00.829Z,24.58
2017-09-14T20:23:28.431Z,24.38
2017-09-14T20:25:57.281Z,24.25
2017-09-14T20:28:24.843Z,24.29
2017-09-14T20:30:53.371Z,24.31
2017-09-14T20:33:20.977Z,24.29
2017-09-14T20:35:48.563Z,24.31
2017-09-14T20:38:16.155Z,24.17
2017-09-14T20:40:44.055Z,24.01
2017-09-14T20:43:11.639Z,24.01
2017-09-14T20:45:39.258Z,23.98
2017-09-14T20:48:06.931Z,24.04
2017-09-14T20:50:34.512Z,24.08
2017-09-14T20:53:02.070Z,24.04
2017-09-14T20:55:29.605Z,23.88
2017-09-14T20:57:57.190Z,23.98
2017-09-14T21:00:24.866Z,23.54
2017-09-14T21:02:52.486Z,23.41
2017-09-14T21:05:20.061Z,23.46
2017-09-14T21:07:47.734Z,23.52
2017-09-14T21:10:15.293Z,23.60
2017-09-14T21:12:42.874Z,23.55
2017-09-14T21:15:10.498Z,23.34
2017-09-14T21:17:38.021Z,23.24
2017-09-14T21:20:05.784Z,23.16
2017-09-14T21:22:33.378Z,23.36
2017-09-14T21:25:00.924Z,23.40
2017-09-14T21:27:28.509Z,23.62
2017-09-14T21:29:56.129Z,23.53
2017-09-14T21:32:23.741Z,23.22
2017-09-14T21:34:51.291Z,23.17
2017-09-14T21:37:18.919Z,23.26
2017-09-14T21:39:46.500Z,23.25
2017-09-14T21:42:14.092Z,23.21
2017-09-14T21:44:41.688Z,23.02
2017-09-14T21:47:09.280Z,23.05
2017-09-14T21:49:36.846Z,22.96
2017-09-14T21:52:04.417Z,23.04
2017-09-14T21:54:32.025Z,23.05
2017-09-14T21:56:59.568Z,23.03
2017-09-14T21:59:27.105Z,23.15
2017-09-14T22:01:54.720Z,23.18
2017-09-14T22:04:22.411Z,22.94
2017-09-14T22:06:49.981Z,22.87
2017-09-14T22:09:17.535Z,22.89
2017-09-14T22:11:45.064Z,22.77
2017-09-14T22:14:12.618Z,22.71
2017-09-14T22:16:40.232Z,22.77
2017-09-14T22:19:07.977Z,22.60
2017-09-14T22:21:35.529Z,22.54
2017-09-14T22:24:03.111Z,22.55
2017-09-14T22:26:30.690Z,22.50
2017-09-14T22:28:59.023Z,22.31
2017-09-14T22:31:26.618Z,22.39
2017-09-14T22:33:54.227Z,22.40
2017-09-14T22:36:21.801Z,22.51
2017-09-14T22:38:49.391Z,22.56
2017-09-14T22:41:16.918Z,22.54
2017-09-14T22:43:44.515Z,22.46
2017-09-14T22:46:12.085Z,22.24
2017-09-14T22:48:39.617Z,22.23
2017-09-14T22:51:07.222Z,22.17
2017-09-14T22:53:34.844Z,22.05
2017-09-14T22:56:02.446Z,21.94
2017-09-14T22:58:30.213Z,21.97
2017-09-14T23:00:57.795Z,22.02
2017-09-14T23:03:25.333Z,21.97
2017-09-14T23:05:52.874Z,22.14
2017-09-14T23:08:21.310Z,22.02
2017-09-14T23:10:48.844Z,22.02
2017-09-14T23:13:16.360Z,21.86
2017-09-14T23:15:43.975Z,21.76
2017-09-14T23:18:11.529Z,21.88
2017-09-14T23:20:39.061Z,21.92
2017-09-14T23:23:06.675Z,21.72
2017-09-14T23:25:34.217Z,21.67
2017-09-14T23:28:01.741Z,21.76
2017-09-14T23:30:29.336Z,21.73
2017-09-14T23:32:56.863Z,21.81
2017-09-14T23:35:24.381Z,21.97
2017-09-14T23:37:51.987Z,21.66
2017-09-14T23:40:19.569Z,21.52
2017-09-14T23:42:47.098Z,21.68
2017-09-14T23:45:14.668Z,21.77
2017-09-14T23:47:42.252Z,21.91
2017-09-14T23:50:09.789Z,21.75
2017-09-14T23:52:37.395Z,21.53
2017-09-14T23:55:04.930Z,21.50
2017-09-14T23:57:32.550Z,21.68
